Time;durP1;ratioP1;P1;durP2;ratioP2;P2;SDS_P1;SDS_P2;PMS_P1;PMS_P2;Temp;Humidity;BMP_temperature;BMP_pressure;BME280_temperature;BME280_humidity;BME280_pressure;Samples;Min_cycle;Max_cycle;Signal;HPM_P1;HPM_P2
2021/06/13 00:00:00;;;;;;;1.60;1.27;;;24.90;58.30;;;;;;5053463;28;20090;-53
2021/06/13 00:02:28;;;;;;;1.33;1.23;;;24.90;58.30;;;;;;5053109;28;20041;-54
2021/06/13 00:04:55;;;;;;;1.33;1.23;;;24.90;58.30;;;;;;5051285;28;20055;-54
2021/06/13 00:07:23;;;;;;;1.42;1.30;;;24.90;58.30;;;;;;5051207;28;20085;-54
2021/06/13 00:09:50;;;;;;;1.73;1.30;;;24.90;58.30;;;;;;5052018;28;20053;-54
2021/06/13 00:12:17;;;;;;;1.63;1.52;;;24.90;58.30;;;;;;5044916;28;20118;-53
2021/06/13 00:14:45;;;;;;;1.52;1.42;;;24.90;58.40;;;;;;5041926;28;20099;-55
2021/06/13 00:17:16;;;;;;;1.52;1.42;;;24.90;58.40;;;;;;5051866;28;20060;-54
2021/06/13 00:19:44;;;;;;;1.50;1.33;;;24.90;58.40;;;;;;5052297;28;20120;-53
2021/06/13 00:22:12;;;;;;;1.20;1.10;;;24.90;58.40;;;;;;5050806;28;20048;-56
2021/06/13 00:24:40;;;;;;;1.45;1.33;;;24.90;58.40;;;;;;5048580;28;20049;-53
2021/06/13 00:27:08;;;;;;;1.42;1.33;;;24.90;58.40;;;;;;5039015;28;20041;-51
2021/06/13 00:29:35;;;;;;;1.40;1.30;;;24.90;58.40;;;;;;5051629;28;20041;-51
2021/06/13 00:32:03;;;;;;;1.42;1.25;;;24.90;58.40;;;;;;5054231;28;20059;-55
2021/06/13 00:34:31;;;;;;;1.40;1.20;;;24.90;58.40;;;;;;5055999;28;20055;-56
2021/06/13 00:36:58;;;;;;;1.30;1.20;;;24.90;58.40;;;;;;5039043;28;20145;-52
2021/06/13 00:39:26;;;;;;;1.50;1.40;;;24.90;58.40;;;;;;5039184;28;20054;-50
2021/06/13 00:41:54;;;;;;;1.55;1.45;;;24.90;58.40;;;;;;5056237;28;20045;-52
2021/06/13 00:44:21;;;;;;;1.50;1.40;;;24.90;58.40;;;;;;5042484;28;20383;-54
2021/06/13 00:46:49;;;;;;;1.60;1.50;;;24.90;58.40;;;;;;5039514;28;20057;-53
2021/06/13 00:49:16;;;;;;;1.42;1.33;;;24.90;58.50;;;;;;5040495;28;20057;-54
2021/06/13 00:51:44;;;;;;;1.48;1.30;;;24.90;58.40;;;;;;5040222;28;20562;-54
2021/06/13 00:54:12;;;;;;;1.40;1.30;;;24.90;58.40;;;;;;5054130;28;20053;-55
2021/06/13 00:56:40;;;;;;;1.23;1.13;;;24.90;58.50;;;;;;5054402;28;20045;-56
2021/06/13 00:59:07;;;;;;;1.33;1.23;;;24.90;58.50;;;;;;5055377;28;20053;-52
2021/06/13 01:01:35;;;;;;;1.42;1.25;;;24.90;58.50;;;;;;5056507;28;20045;-51
2021/06/13 01:04:03;;;;;;;1.30;1.20;;;24.90;58.50;;;;;;5055468;28;20049;-55
2021/06/13 01:07:04;;;;;;;1.45;1.35;;;24.90;58.50;;;;;;5045582;28;20045;-53
2021/06/13 01:09:41;;;;;;;1.40;1.30;;;24.90;58.50;;;;;;5036821;28;20100;-53
2021/06/13 01:12:16;;;;;;;1.85;1.25;;;24.90;58.50;;;;;;5040327;28;20425;-53
2021/06/13 01:14:47;;;;;;;1.65;1.55;;;24.90;58.50;;;;;;5038864;28;20107;-55
2021/06/13 01:17:14;;;;;;;1.40;1.30;;;24.90;58.50;;;;;;5052666;28;20424;-54
2021/06/13 01:20:07;;;;;;;1.63;1.52;;;24.90;58.50;;;;;;5055395;28;20132;-53
2021/06/13 01:23:11;;;;;;;1.30;1.20;;;24.90;58.50;;;;;;5055215;28;20107;-52
2021/06/13 01:25:51;;;;;;;1.20;1.10;;;24.90;58.50;;;;;;5054941;28;20049;-56
2021/06/13 01:28:54;;;;;;;1.40;1.30;;;24.90;58.50;;;;;;5038069;28;20049;-56
2021/06/13 01:31:30;;;;;;;1.50;1.40;;;24.90;58.50;;;;;;5041535;28;20049;-55
2021/06/13 01:34:01;;;;;;;1.48;1.38;;;24.90;58.50;;;;;;5054768;28;20040;-56
2021/06/13 01:36:32;;;;;;;1.40;1.30;;;24.90;58.50;;;;;;5055183;28;20124;-54
2021/06/13 01:39:01;;;;;;;1.55;1.40;;;24.90;58.50;;;;;;5054711;28;20040;-55
2021/06/13 01:41:31;;;;;;;1.63;1.25;;;24.90;58.50;;;;;;5056136;28;20135;-55
2021/06/13 01:44:00;;;;;;;1.23;1.13;;;24.90;58.50;;;;;;5052738;28;20092;-55
2021/06/13 01:46:32;;;;;;;1.80;1.23;;;24.80;58.50;;;;;;5054630;28;20049;-55
2021/06/13 01:49:01;;;;;;;1.30;1.20;;;24.90;58.60;;;;;;5053525;28;20045;-56
2021/06/13 01:51:30;;;;;;;1.38;1.27;;;24.90;58.50;;;;;;5055119;28;20053;-56
2021/06/13 01:54:03;;;;;;;1.23;1.13;;;24.90;58.60;;;;;;5053168;28;20141;-56
2021/06/13 01:56:36;;;;;;;1.42;1.27;;;24.90;58.60;;;;;;5037201;28;20041;-55
2021/06/13 01:59:04;;;;;;;1.98;1.52;;;24.90;58.60;;;;;;5054083;28;20049;-55
2021/06/13 02:01:32;;;;;;;1.38;1.27;;;24.90;58.60;;;;;;5035772;28;20497;-57
2021/06/13 02:04:02;;;;;;;1.20;1.10;;;24.80;58.50;;;;;;5054482;28;20049;-54
2021/06/13 02:06:33;;;;;;;1.27;1.17;;;24.90;58.60;;;;;;5053313;28;20095;-55
2021/06/13 02:09:02;;;;;;;1.30;1.20;;;24.90;58.60;;;;;;5053899;28;20045;-56
2021/06/13 02:11:32;;;;;;;1.50;1.40;;;24.90;58.60;;;;;;5052107;28;20045;-56
2021/06/13 02:14:01;;;;;;;1.40;1.30;;;24.90;58.60;;;;;;5054254;28;20052;-55
2021/06/13 02:16:30;;;;;;;1.30;1.20;;;24.80;58.50;;;;;;5054058;28;20131;-55
2021/06/13 02:18:59;;;;;;;1.40;1.30;;;24.90;58.60;;;;;;5054258;28;20048;-55
2021/06/13 02:21:28;;;;;;;1.58;1.13;;;24.90;58.60;;;;;;5040510;28;20049;-55
2021/06/13 02:23:56;;;;;;;1.30;1.15;;;24.90;58.60;;;;;;5051065;28;20049;-55
2021/06/13 02:26:25;;;;;;;1.60;1.50;;;24.80;58.50;;;;;;5054781;28;20102;-55
2021/06/13 02:28:56;;;;;;;1.55;1.45;;;24.80;58.50;;;;;;5042010;28;20163;-55
2021/06/13 02:31:29;;;;;;;1.40;1.30;;;24.90;58.70;;;;;;5050083;28;20052;-54
2021/06/13 02:33:58;;;;;;;1.80;1.30;;;24.90;58.70;;;;;;5054742;28;20055;-55
2021/06/13 02:36:27;;;;;;;1.40;1.30;;;24.80;58.60;;;;;;5054734;28;20045;-54
2021/06/13 02:38:55;;;;;;;1.85;1.50;;;24.80;58.60;;;;;;5054771;28;20049;-56
2021/06/13 02:41:23;;;;;;;1.30;1.20;;;24.80;58.60;;;;;;5054956;28;20041;-54
2021/06/13 02:43:51;;;;;;;1.20;1.10;;;24.80;58.60;;;;;;5054989;28;20100;-52
2021/06/13 02:46:18;;;;;;;1.35;1.25;;;24.80;58.60;;;;;;5045764;28;20041;-55
2021/06/13 02:48:46;;;;;;;1.63;1.52;;;24.80;58.70;;;;;;5047431;28;20057;-53
2021/06/13 02:51:15;;;;;;;1.45;1.35;;;24.80;58.60;;;;;;5042712;28;20072;-56
2021/06/13 02:53:46;;;;;;;1.25;1.15;;;24.90;58.70;;;;;;5053378;28;20049;-55
2021/06/13 02:56:20;;;;;;;1.42;1.33;;;24.90;58.70;;;;;;5054054;28;20040;-55
2021/06/13 02:58:54;;;;;;;1.65;1.30;;;24.90;58.70;;;;;;5053162;28;20445;-54
2021/06/13 03:01:22;;;;;;;1.60;1.50;;;24.80;58.60;;;;;;5053398;28;20059;-55
2021/06/13 03:03:51;;;;;;;1.38;1.27;;;24.80;58.60;;;;;;5049526;28;20046;-54
2021/06/13 03:06:21;;;;;;;1.30;1.20;;;24.80;59.20;;;;;;5039705;28;20049;-54
2021/06/13 03:08:49;;;;;;;1.40;1.30;;;24.90;58.70;;;;;;5050780;28;20123;-53
2021/06/13 03:11:19;;;;;;;1.63;1.52;;;24.80;58.60;;;;;;5038161;28;20041;-56
2021/06/13 03:13:48;;;;;;;1.52;1.42;;;24.80;58.70;;;;;;5053166;28;20112;-52
2021/06/13 03:16:17;;;;;;;1.50;1.40;;;24.90;58.70;;;;;;5037940;28;20484;-54
2021/06/13 03:18:48;;;;;;;1.48;1.38;;;24.90;58.80;;;;;;5052845;28;20047;-55
2021/06/13 03:21:17;;;;;;;2.75;1.40;;;24.90;58.80;;;;;;5036378;28;20056;-53
2021/06/13 03:23:47;;;;;;;1.23;1.13;;;24.80;58.70;;;;;;5035926;28;20456;-53
2021/06/13 03:26:15;;;;;;;1.33;1.23;;;24.80;58.70;;;;;;5051779;28;20084;-57
2021/06/13 03:28:44;;;;;;;1.50;1.27;;;24.80;58.70;;;;;;5035692;28;20056;-56
2021/06/13 03:31:13;;;;;;;1.17;1.08;;;24.90;58.70;;;;;;5036556;28;20481;-55
2021/06/13 03:33:42;;;;;;;1.40;1.30;;;24.80;58.70;;;;;;5037051;28;20053;-54
2021/06/13 03:36:10;;;;;;;1.25;1.15;;;24.80;58.70;;;;;;5036084;28;20049;-55
2021/06/13 03:38:40;;;;;;;1.35;1.25;;;24.80;58.70;;;;;;5052798;28;20056;-50
2021/06/13 03:41:08;;;;;;;1.33;1.23;;;24.80;58.70;;;;;;5052373;28;20048;-53
2021/06/13 03:43:36;;;;;;;1.25;1.15;;;24.80;58.70;;;;;;5052493;28;20049;-54
2021/06/13 03:46:10;;;;;;;1.48;1.38;;;24.80;58.70;;;;;;5051874;28;20067;-54
2021/06/13 03:48:38;;;;;;;1.58;1.38;;;24.80;58.70;;;;;;5051518;28;20382;-55
2021/06/13 03:51:06;;;;;;;1.35;1.25;;;24.80;58.70;;;;;;5052658;28;20056;-55
2021/06/13 03:53:46;;;;;;;1.67;1.45;;;24.90;58.70;;;;;;5052337;28;20400;-55
2021/06/13 03:56:19;;;;;;;1.48;1.38;;;24.90;58.70;;;;;;5052525;28;20452;-54
2021/06/13 03:58:48;;;;;;;1.45;1.30;;;24.90;58.70;;;;;;5052482;28;20048;-54
2021/06/13 04:01:17;;;;;;;1.23;1.13;;;24.80;58.70;;;;;;5051940;28;20052;-54
2021/06/13 04:03:50;;;;;;;1.30;1.20;;;24.80;58.70;;;;;;5041606;28;20440;-56
2021/06/13 04:06:25;;;;;;;1.38;1.27;;;24.90;58.70;;;;;;5036383;28;20139;-54
2021/06/13 04:08:54;;;;;;;1.98;1.33;;;24.90;58.70;;;;;;5036489;28;20059;-54
2021/06/13 04:11:24;;;;;;;1.40;1.30;;;24.80;58.70;;;;;;5047174;28;20048;-54
2021/06/13 04:13:53;;;;;;;1.45;1.30;;;24.90;58.70;;;;;;5043568;28;20045;-54
2021/06/13 04:16:22;;;;;;;1.40;1.30;;;24.90;58.80;;;;;;5052768;28;20045;-53
2021/06/13 04:18:51;;;;;;;1.40;1.30;;;24.80;58.70;;;;;;5052971;28;20049;-55
2021/06/13 04:21:19;;;;;;;1.30;1.20;;;24.80;58.70;;;;;;5051998;28;20128;-52
2021/06/13 04:23:48;;;;;;;1.50;1.40;;;24.90;58.70;;;;;;5046639;28;20049;-53
2021/06/13 04:26:18;;;;;;;1.23;1.13;;;24.80;58.70;;;;;;5041845;28;20076;-54
2021/06/13 04:28:48;;;;;;;1.45;1.30;;;24.80;58.70;;;;;;5051878;28;20045;-55
2021/06/13 04:31:17;;;;;;;1.20;1.10;;;24.80;58.70;;;;;;5052036;28;20041;-55
2021/06/13 04:33:47;;;;;;;1.50;1.40;;;24.90;58.70;;;;;;5053224;28;20098;-54
2021/06/13 04:36:17;;;;;;;1.60;1.50;;;24.90;58.70;;;;;;5051778;28;20048;-56
2021/06/13 04:38:45;;;;;;;1.38;1.27;;;24.90;58.70;;;;;;5051908;28;20794;-54
2021/06/13 04:41:15;;;;;;;1.30;1.20;;;24.90;58.60;;;;;;5050596;28;20049;-53
2021/06/13 04:43:42;;;;;;;1.60;1.40;;;24.90;58.60;;;;;;5050654;28;20064;-55
2021/06/13 04:46:11;;;;;;;1.40;1.30;;;24.90;59.10;;;;;;5051281;28;20045;-52
2021/06/13 04:48:39;;;;;;;1.30;1.20;;;24.90;58.50;;;;;;5051518;28;20045;-57
2021/06/13 04:51:10;;;;;;;1.58;1.48;;;24.90;58.50;;;;;;5034787;28;20598;-51
2021/06/13 04:53:51;;;;;;;1.52;1.42;;;25.00;58.50;;;;;;5034097;28;20049;-56
2021/06/13 04:56:26;;;;;;;1.48;1.35;;;25.00;58.50;;;;;;5035159;28;20524;-56
2021/06/13 04:58:54;;;;;;;1.50;1.40;;;25.00;58.40;;;;;;5050399;28;20044;-54
2021/06/13 05:01:22;;;;;;;2.33;1.40;;;25.00;58.30;;;;;;5049913;28;20052;-52
2021/06/13 05:03:50;;;;;;;1.38;1.27;;;25.00;58.20;;;;;;5033107;28;20051;-55
2021/06/13 05:06:17;;;;;;;1.38;1.27;;;25.10;58.20;;;;;;5051583;28;20107;-55
2021/06/13 05:08:44;;;;;;;1.50;1.25;;;25.10;58.10;;;;;;5051437;28;20056;-56
2021/06/13 05:11:13;;;;;;;1.48;1.38;;;25.10;58.00;;;;;;5043358;28;20056;-54
2021/06/13 05:13:40;;;;;;;1.20;1.10;;;25.20;58.00;;;;;;5050401;28;20488;-54
2021/06/13 05:16:09;;;;;;;1.45;1.23;;;25.20;57.90;;;;;;5051228;28;20041;-55
2021/06/13 05:18:36;;;;;;;1.30;1.17;;;25.20;57.80;;;;;;5040557;28;20057;-57
2021/06/13 05:21:04;;;;;;;1.70;1.60;;;25.30;57.80;;;;;;5054384;28;20049;-52
2021/06/13 05:23:32;;;;;;;1.30;1.20;;;25.30;57.70;;;;;;5057337;28;20082;-55
2021/06/13 05:26:02;;;;;;;1.45;1.35;;;25.30;57.60;;;;;;5054007;28;20053;-55
2021/06/13 05:28:30;;;;;;;1.42;1.33;;;25.40;57.60;;;;;;5054796;28;20055;-56
2021/06/13 05:30:58;;;;;;;3.47;1.30;;;25.40;57.50;;;;;;5055305;28;20055;-56
2021/06/13 05:33:31;;;;;;;1.40;1.30;;;25.40;57.40;;;;;;5054965;28;20040;-55
2021/06/13 05:36:01;;;;;;;1.42;1.33;;;25.40;57.40;;;;;;5052505;28;20504;-54
2021/06/13 05:38:29;;;;;;;1.40;1.30;;;25.50;57.30;;;;;;5054819;28;20052;-52
2021/06/13 05:40:57;;;;;;;1.65;1.40;;;25.50;57.30;;;;;;5055020;28;20045;-56
2021/06/13 05:43:25;;;;;;;1.40;1.30;;;25.50;57.20;;;;;;5054017;28;20452;-56
2021/06/13 05:45:52;;;;;;;1.50;1.40;;;25.60;57.20;;;;;;5054155;28;20110;-56
2021/06/13 05:48:20;;;;;;;1.40;1.30;;;25.60;57.10;;;;;;5055993;28;20489;-56
2021/06/13 05:50:48;;;;;;;1.40;1.30;;;25.60;57.00;;;;;;5054608;28;20056;-55
2021/06/13 05:53:15;;;;;;;1.38;1.27;;;25.60;57.00;;;;;;5051910;28;20497;-53
2021/06/13 05:55:43;;;;;;;1.42;1.30;;;25.60;56.90;;;;;;5037823;28;20387;-55
2021/06/13 05:58:11;;;;;;;1.40;1.30;;;25.60;56.90;;;;;;5040259;28;20447;-54
2021/06/13 06:00:39;;;;;;;1.38;1.27;;;25.60;56.80;;;;;;5054452;28;20067;-53
2021/06/13 06:03:07;;;;;;;1.02;1.00;;;25.70;56.90;;;;;;5053676;28;20114;-55
2021/06/13 06:05:35;;;;;;;1.70;1.60;;;25.70;56.90;;;;;;5037675;28;20103;-57
2021/06/13 06:08:03;;;;;;;1.35;1.25;;;25.70;56.80;;;;;;5054171;28;20049;-56
2021/06/13 06:10:33;;;;;;;1.50;1.40;;;25.70;56.80;;;;;;5054109;28;20497;-54
2021/06/13 06:13:03;;;;;;;1.50;1.40;;;25.70;56.70;;;;;;5054657;28;20072;-53
2021/06/13 06:15:36;;;;;;;3.17;1.50;;;25.70;56.70;;;;;;5053543;28;20053;-54
2021/06/13 06:18:05;;;;;;;1.42;1.33;;;25.70;56.70;;;;;;5053364;28;20045;-57
2021/06/13 06:20:33;;;;;;;1.27;1.17;;;25.70;56.60;;;;;;5038093;28;20095;-54
2021/06/13 06:23:02;;;;;;;1.63;1.52;;;25.80;56.60;;;;;;5053941;28;20049;-53
2021/06/13 06:25:30;;;;;;;1.35;1.25;;;25.80;56.60;;;;;;5054208;28;20045;-55
2021/06/13 06:27:58;;;;;;;1.52;1.42;;;25.80;56.50;;;;;;5053821;28;20048;-55
2021/06/13 06:30:27;;;;;;;1.55;1.27;;;25.90;56.50;;;;;;5053018;28;20056;-56
2021/06/13 06:32:55;;;;;;;1.40;1.30;;;25.80;56.40;;;;;;5054755;28;20053;-56
2021/06/13 06:35:26;;;;;;;1.40;1.30;;;25.90;56.40;;;;;;5052609;28;20499;-56
2021/06/13 06:37:54;;;;;;;1.27;1.17;;;25.80;56.30;;;;;;5041572;28;20041;-57
2021/06/13 06:40:23;;;;;;;1.30;1.20;;;25.90;56.40;;;;;;5037318;28;20045;-51
2021/06/13 06:42:51;;;;;;;1.20;1.10;;;25.80;56.30;;;;;;5037313;28;20561;-55
2021/06/13 06:45:19;;;;;;;1.55;1.45;;;25.90;56.70;;;;;;5046238;28;20048;-57
2021/06/13 06:47:47;;;;;;;1.40;1.30;;;25.90;56.30;;;;;;5053574;28;20095;-57
2021/06/13 06:50:15;;;;;;;1.83;1.20;;;25.90;56.30;;;;;;5053499;28;20055;-54
2021/06/13 06:52:44;;;;;;;1.70;1.42;;;25.90;56.30;;;;;;5053351;28;20056;-56
2021/06/13 06:55:14;;;;;;;1.55;1.45;;;25.90;56.20;;;;;;5046681;28;20049;-56
2021/06/13 06:57:44;;;;;;;1.40;1.30;;;25.90;56.20;;;;;;5038148;28;20099;-54
2021/06/13 07:00:13;;;;;;;1.30;1.20;;;25.90;56.20;;;;;;5036886;28;20042;-53
2021/06/13 07:02:41;;;;;;;1.70;1.60;;;25.90;56.20;;;;;;5041551;28;20052;-54
2021/06/13 07:05:10;;;;;;;1.50;1.40;;;25.90;56.10;;;;;;5041805;28;20099;-55
2021/06/13 07:07:37;;;;;;;1.70;1.60;;;25.90;56.10;;;;;;5054546;28;20041;-55
2021/06/13 07:10:05;;;;;;;1.60;1.50;;;25.90;56.10;;;;;;5051122;28;20448;-52
2021/06/13 07:12:33;;;;;;;1.40;1.30;;;26.00;56.10;;;;;;5039529;28;20063;-54
2021/06/13 07:15:02;;;;;;;1.73;1.20;;;25.90;56.00;;;;;;5051866;28;20088;-55
2021/06/13 07:17:30;;;;;;;2.75;1.40;;;26.00;56.10;;;;;;5054008;28;20056;-53
2021/06/13 07:19:57;;;;;;;1.30;1.20;;;26.00;56.10;;;;;;5070467;28;20419;-53
2021/06/13 07:22:25;;;;;;;1.50;1.40;;;26.00;56.10;;;;;;5035342;28;20076;-55
2021/06/13 07:24:53;;;;;;;1.58;1.48;;;26.00;56.10;;;;;;5035467;28;20046;-52
2021/06/13 07:27:21;;;;;;;1.48;1.38;;;25.90;56.00;;;;;;5052656;28;20646;-56
2021/06/13 07:29:49;;;;;;;1.88;1.67;;;25.90;56.10;;;;;;5053125;28;20099;-50
2021/06/13 07:32:17;;;;;;;1.42;1.33;;;25.90;56.70;;;;;;5052601;28;20056;-54
2021/06/13 07:34:44;;;;;;;1.50;1.40;;;26.00;56.20;;;;;;5052842;28;20099;-55
2021/06/13 07:37:12;;;;;;;1.42;1.33;;;25.90;56.00;;;;;;5039284;28;20076;-54
2021/06/13 07:39:40;;;;;;;1.50;1.40;;;26.00;56.10;;;;;;5036217;28;20444;-52
2021/06/13 07:42:09;;;;;;;1.40;1.30;;;26.00;56.10;;;;;;5036064;28;20045;-55
2021/06/13 07:44:37;;;;;;;1.50;1.40;;;26.00;56.00;;;;;;5042093;28;20055;-54
2021/06/13 07:47:05;;;;;;;1.30;1.20;;;26.00;56.00;;;;;;5047145;28;20048;-51
2021/06/13 07:49:33;;;;;;;1.65;1.55;;;26.00;55.90;;;;;;5042101;28;20049;-53
2021/06/13 07:52:00;;;;;;;1.50;1.40;;;26.00;55.90;;;;;;5046571;28;20044;-54
2021/06/13 07:54:29;;;;;;;1.60;1.50;;;26.00;55.90;;;;;;5043528;28;20055;-52
2021/06/13 07:56:57;;;;;;;1.35;1.25;;;26.00;55.80;;;;;;5042590;28;20571;-54
2021/06/13 07:59:25;;;;;;;1.75;1.55;;;26.00;55.80;;;;;;5053171;28;20045;-54
2021/06/13 08:01:52;;;;;;;1.52;1.42;;;26.00;55.80;;;;;;5047103;28;20042;-55
2021/06/13 08:04:20;;;;;;;1.50;1.40;;;26.00;56.20;;;;;;5042706;28;20051;-55
2021/06/13 08:06:48;;;;;;;1.67;1.42;;;25.90;55.90;;;;;;5049051;28;20417;-52
2021/06/13 08:09:15;;;;;;;1.67;1.58;;;25.90;55.90;;;;;;5051378;28;20052;-57
2021/06/13 08:11:43;;;;;;;1.60;1.50;;;25.90;55.90;;;;;;5053232;28;20045;-57
2021/06/13 08:14:10;;;;;;;1.50;1.40;;;25.90;56.00;;;;;;5054381;28;20071;-57
2021/06/13 08:16:38;;;;;;;1.92;1.42;;;25.90;56.60;;;;;;5051015;28;20048;-53
2021/06/13 08:19:05;;;;;;;2.00;1.48;;;25.90;56.10;;;;;;5036059;28;20132;-56
2021/06/13 08:21:34;;;;;;;1.60;1.45;;;25.80;56.10;;;;;;5052074;28;20047;-57
2021/06/13 08:24:03;;;;;;;1.73;1.63;;;25.80;56.10;;;;;;5034315;28;20080;-57
2021/06/13 08:26:32;;;;;;;1.50;1.40;;;25.80;56.10;;;;;;5051551;28;20461;-57
2021/06/13 08:29:02;;;;;;;1.70;1.40;;;25.80;56.20;;;;;;5033675;28;20056;-55
2021/06/13 08:31:30;;;;;;;1.55;1.42;;;25.80;56.20;;;;;;5035533;28;20128;-55
2021/06/13 08:33:58;;;;;;;1.58;1.35;;;25.80;56.20;;;;;;5035590;28;20496;-55
2021/06/13 08:36:26;;;;;;;1.40;1.25;;;25.80;56.20;;;;;;5035838;28;20475;-56
2021/06/13 08:38:55;;;;;;;1.63;1.52;;;25.80;56.20;;;;;;5050328;28;20056;-57
2021/06/13 08:41:24;;;;;;;1.60;1.50;;;25.80;56.20;;;;;;5037360;28;20057;-55
2021/06/13 08:43:52;;;;;;;1.70;1.60;;;25.70;56.20;;;;;;5035427;28;20561;-55
2021/06/13 08:46:23;;;;;;;1.92;1.60;;;25.80;56.20;;;;;;5052103;28;20040;-56
2021/06/13 08:48:51;;;;;;;1.52;1.42;;;25.80;56.20;;;;;;5052953;28;20052;-55
2021/06/13 08:51:20;;;;;;;1.50;1.40;;;25.70;56.10;;;;;;5039942;28;20099;-53
2021/06/13 08:53:50;;;;;;;1.40;1.30;;;25.80;56.20;;;;;;5037942;28;20128;-55
2021/06/13 08:56:20;;;;;;;1.50;1.40;;;25.70;56.10;;;;;;5049147;28;20136;-53
2021/06/13 08:58:51;;;;;;;1.92;1.70;;;25.80;56.20;;;;;;5046388;28;20049;-55
2021/06/13 09:01:20;;;;;;;1.52;1.42;;;25.80;56.20;;;;;;5050356;28;20072;-50
2021/06/13 09:03:48;;;;;;;1.60;1.50;;;25.80;56.20;;;;;;5056595;28;20049;-53
2021/06/13 09:06:16;;;;;;;1.50;1.40;;;25.70;56.20;;;;;;5055668;28;20464;-55
2021/06/13 09:08:47;;;;;;;1.63;1.38;;;25.70;56.20;;;;;;5055641;28;20048;-55
2021/06/13 09:11:26;;;;;;;1.90;1.80;;;25.70;56.20;;;;;;5055376;28;20124;-55
2021/06/13 09:14:09;;;;;;;2.15;1.50;;;25.70;56.20;;;;;;5055346;28;20056;-52
2021/06/13 09:16:39;;;;;;;1.77;1.50;;;25.70;56.20;;;;;;5055165;28;20045;-51
2021/06/13 09:19:07;;;;;;;1.63;1.50;;;25.70;56.20;;;;;;5054102;28;20075;-51
2021/06/13 09:21:37;;;;;;;1.35;1.25;;;25.70;56.20;;;;;;5055215;28;20045;-54
2021/06/13 09:24:25;;;;;;;1.65;1.50;;;25.70;56.20;;;;;;5049508;28;20556;-55
2021/06/13 09:26:55;;;;;;;1.58;1.48;;;25.70;56.20;;;;;;5038687;28;20053;-56
2021/06/13 09:29:23;;;;;;;2.10;1.85;;;25.70;56.20;;;;;;5038431;28;20049;-50
2021/06/13 09:32:06;;;;;;;1.90;1.50;;;25.70;56.20;;;;;;5038467;28;20056;-53
2021/06/13 09:34:34;;;;;;;1.75;1.65;;;25.70;56.20;;;;;;5047389;28;20049;-54
2021/06/13 09:37:04;;;;;;;1.52;1.40;;;25.70;56.20;;;;;;5047203;28;20046;-54
2021/06/13 09:39:33;;;;;;;1.90;1.23;;;25.70;56.20;;;;;;5038522;28;20041;-55
2021/06/13 09:42:08;;;;;;;1.73;1.50;;;25.70;56.20;;;;;;5039755;28;20069;-54
2021/06/13 09:44:36;;;;;;;1.65;1.50;;;25.70;56.20;;;;;;5044380;28;20565;-54
2021/06/13 09:47:04;;;;;;;1.70;1.55;;;25.80;56.20;;;;;;5055715;28;20064;-54
2021/06/13 09:49:46;;;;;;;1.63;1.45;;;25.80;56.20;;;;;;5050815;28;20064;-54
2021/06/13 09:52:13;;;;;;;2.00;1.40;;;25.70;56.00;;;;;;5045208;28;20076;-55
2021/06/13 09:54:41;;;;;;;1.90;1.80;;;25.80;56.10;;;;;;5054284;28;20132;-56
2021/06/13 09:57:09;;;;;;;1.58;1.48;;;25.80;56.10;;;;;;5058722;28;20477;-55
2021/06/13 09:59:37;;;;;;;1.70;1.58;;;25.80;56.10;;;;;;5067270;28;20041;-53
2021/06/13 10:02:09;;;;;;;1.20;1.10;;;25.80;56.10;;;;;;5054293;28;20045;-57
2021/06/13 10:04:40;;;;;;;1.83;1.50;;;25.80;56.10;;;;;;5054361;28;20041;-56
2021/06/13 10:07:17;;;;;;;1.60;1.50;;;25.80;56.10;;;;;;5054587;28;20500;-54
2021/06/13 10:09:50;;;;;;;1.50;1.35;;;25.80;56.10;;;;;;5054529;28;20045;-54
2021/06/13 10:12:19;;;;;;;2.03;1.40;;;25.70;56.00;;;;;;5054004;28;20045;-52
2021/06/13 10:14:48;;;;;;;1.52;1.42;;;25.80;56.20;;;;;;5054158;28;20053;-54
2021/06/13 10:17:19;;;;;;;1.85;1.40;;;25.70;56.00;;;;;;5053244;28;20132;-55
2021/06/13 10:19:48;;;;;;;2.65;1.65;;;25.70;56.00;;;;;;5037967;28;20119;-55
2021/06/13 10:22:18;;;;;;;1.63;1.40;;;25.80;56.00;;;;;;5037782;28;20405;-52
2021/06/13 10:24:48;;;;;;;1.73;1.45;;;25.80;56.10;;;;;;5036882;28;20049;-50
2021/06/13 10:27:18;;;;;;;1.52;1.42;;;25.80;56.00;;;;;;5053975;28;20045;-54
2021/06/13 10:29:49;;;;;;;1.45;1.35;;;25.80;56.00;;;;;;5053518;28;20131;-57
2021/06/13 10:32:20;;;;;;;1.63;1.52;;;25.70;56.00;;;;;;5069231;28;20136;-56
2021/06/13 10:34:53;;;;;;;3.88;1.48;;;25.80;56.00;;;;;;5053602;28;20128;-56
2021/06/13 10:37:21;;;;;;;1.85;1.60;;;25.80;56.00;;;;;;5036331;28;20046;-58
2021/06/13 10:39:49;;;;;;;1.55;1.40;;;25.80;56.00;;;;;;5036376;28;20528;-55
2021/06/13 10:42:18;;;;;;;1.88;1.60;;;25.80;56.00;;;;;;5055102;28;20148;-57
2021/06/13 10:44:52;;;;;;;1.95;1.80;;;25.80;56.00;;;;;;5046445;28;20055;-55
2021/06/13 10:47:22;;;;;;;1.30;1.20;;;25.80;56.00;;;;;;5054250;28;20056;-53
2021/06/13 10:49:56;;;;;;;1.67;1.38;;;25.80;56.00;;;;;;5038587;28;20413;-54
2021/06/13 10:52:24;;;;;;;;;;;25.80;56.00;;;;;;5069472;28;20401;-55
2021/06/13 10:54:53;;;;;;;1.60;1.50;;;25.80;56.00;;;;;;5053108;28;19921;-56
2021/06/13 10:57:24;;;;;;;1.35;1.25;;;25.80;56.00;;;;;;5054642;28;20415;-55
2021/06/13 10:59:57;;;;;;;2.20;1.58;;;25.80;56.00;;;;;;5053094;28;20123;-55
2021/06/13 11:02:50;;;;;;;1.85;1.52;;;25.80;56.00;;;;;;5053542;28;20049;-53
2021/06/13 11:05:38;;;;;;;2.30;1.60;;;25.80;56.00;;;;;;5053209;28;20051;-55
2021/06/13 11:08:07;;;;;;;1.50;1.30;;;25.80;56.00;;;;;;5046909;28;20052;-54
2021/06/13 11:10:34;;;;;;;1.90;1.48;;;25.80;56.00;;;;;;5036252;28;20508;-56
2021/06/13 11:13:03;;;;;;;1.75;1.50;;;25.80;56.00;;;;;;5053228;28;20098;-55
2021/06/13 11:15:32;;;;;;;1.70;1.60;;;25.80;55.90;;;;;;5037052;28;20129;-54
2021/06/13 11:18:14;;;;;;;1.48;1.38;;;25.80;55.90;;;;;;5052699;28;20048;-56
2021/06/13 11:21:01;;;;;;;1.45;1.35;;;25.80;55.80;;;;;;5052942;28;20055;-55
2021/06/13 11:23:28;;;;;;;2.20;1.38;;;25.80;55.80;;;;;;5052922;28;20056;-57
2021/06/13 11:26:33;;;;;;;1.55;1.45;;;25.80;55.80;;;;;;5053346;28;20468;-54
2021/06/13 11:30:08;;;;;;;1.80;1.38;;;25.80;55.80;;;;;;5035600;28;20057;-54
2021/06/13 11:32:58;;;;;;;1.50;1.40;;;25.90;55.80;;;;;;5048023;28;20049;-56
2021/06/13 11:35:30;;;;;;;1.63;1.40;;;25.80;55.80;;;;;;5042230;28;20053;-58
2021/06/13 11:38:13;;;;;;;1.85;1.50;;;25.90;55.90;;;;;;5037268;28;20056;-55
2021/06/13 11:40:53;;;;;;;1.52;1.30;;;25.80;55.80;;;;;;5048470;28;20051;-55
2021/06/13 11:43:24;;;;;;;1.58;1.40;;;25.80;55.80;;;;;;5053891;28;20455;-56
2021/06/13 11:46:03;;;;;;;1.92;1.40;;;25.80;55.80;;;;;;5052768;28;20110;-56
2021/06/13 11:48:35;;;;;;;2.05;1.27;;;25.90;55.80;;;;;;5053602;28;20049;-55
2021/06/13 11:51:03;;;;;;;1.50;1.40;;;25.80;55.80;;;;;;5041167;28;20045;-56
2021/06/13 11:53:50;;;;;;;2.15;1.30;;;25.80;55.80;;;;;;5047071;28;20057;-56
2021/06/13 11:56:40;;;;;;;1.73;1.40;;;25.80;55.80;;;;;;5051144;28;20063;-56
2021/06/13 11:59:22;;;;;;;1.88;1.65;;;25.80;55.80;;;;;;5053545;28;20053;-55
2021/06/13 12:02:00;;;;;;;1.60;1.35;;;25.80;55.90;;;;;;5051201;28;20048;-56
2021/06/13 12:04:29;;;;;;;2.17;1.50;;;25.80;55.80;;;;;;5051739;28;20049;-57
2021/06/13 12:06:58;;;;;;;1.50;1.40;;;25.80;55.80;;;;;;5052035;28;20049;-54
2021/06/13 12:09:29;;;;;;;2.15;1.52;;;25.80;55.80;;;;;;5052382;28;20053;-56
2021/06/13 12:11:59;;;;;;;2.05;1.55;;;25.80;55.80;;;;;;5054313;28;20052;-54
2021/06/13 12:14:41;;;;;;;1.35;1.25;;;25.80;55.80;;;;;;5036264;28;20080;-57
2021/06/13 12:17:13;;;;;;;2.08;1.60;;;25.70;55.80;;;;;;5051809;28;20489;-53
2021/06/13 12:19:47;;;;;;;1.40;1.20;;;25.80;55.90;;;;;;5051825;28;20045;-55
2021/06/13 12:22:41;;;;;;;2.05;1.30;;;25.80;56.00;;;;;;5036516;28;20124;-53
2021/06/13 12:27:48;;;;;;;1.73;1.63;;;25.70;55.90;;;;;;5033221;28;20052;-57
2021/06/13 12:30:22;;;;;;;1.70;1.60;;;25.70;55.90;;;;;;5051393;28;20053;-52
2021/06/13 12:33:09;;;;;;;2.35;1.50;;;25.70;55.90;;;;;;5051346;28;20049;-56
2021/06/13 12:35:41;;;;;;;1.58;1.10;;;25.70;55.90;;;;;;5035346;28;20091;-55
2021/06/13 12:38:10;;;;;;;1.95;1.48;;;25.70;55.90;;;;;;5052789;28;20056;-57
2021/06/13 12:40:41;;;;;;;1.50;1.40;;;25.70;55.90;;;;;;5035642;28;20049;-56
2021/06/13 12:43:11;;;;;;;1.45;1.35;;;25.70;55.90;;;;;;5052749;28;20045;-56
2021/06/13 12:45:40;;;;;;;1.95;1.52;;;25.70;55.90;;;;;;5037427;28;20490;-56
2021/06/13 12:48:10;;;;;;;1.40;1.20;;;25.70;55.90;;;;;;5050733;28;20096;-58
2021/06/13 12:50:44;;;;;;;1.67;1.40;;;25.70;55.90;;;;;;5052450;28;20056;-57
2021/06/13 12:53:15;;;;;;;2.75;1.45;;;25.70;55.90;;;;;;5052163;28;20129;-57
2021/06/13 12:55:45;;;;;;;2.17;1.65;;;25.70;55.90;;;;;;5051495;28;20053;-57
2021/06/13 12:58:19;;;;;;;1.70;1.60;;;25.70;55.90;;;;;;5051414;28;20045;-57
2021/06/13 13:00:48;;;;;;;1.65;1.38;;;25.70;55.90;;;;;;5051781;28;20064;-57
2021/06/13 13:03:18;;;;;;;1.33;1.23;;;25.70;55.90;;;;;;5036615;28;20042;-56
2021/06/13 13:06:01;;;;;;;1.90;1.52;;;25.70;55.90;;;;;;5049771;28;20052;-53
2021/06/13 13:08:36;;;;;;;1.83;1.48;;;25.70;55.80;;;;;;5051601;28;20053;-55